sensor_id;sensor_type;location;lat;lon;timestamp;P1;durP1;ratioP1;P2;durP2;ratioP2
434;SDS011;204;48.942;9.256;2023-08-17T00:00:06;8.03;;;7.63;;
434;SDS011;204;48.942;9.256;2023-08-17T00:02:38;8.57;;;8.13;;
434;SDS011;204;48.942;9.256;2023-08-17T00:05:04;8.17;;;7.60;;
434;SDS011;204;48.942;9.256;2023-08-17T00:07:31;9.10;;;8.60;;
434;SDS011;204;48.942;9.256;2023-08-17T00:09:57;9.00;;;8.50;;
434;SDS011;204;48.942;9.256;2023-08-17T00:12:22;11.23;;;9.20;;
434;SDS011;204;48.942;9.256;2023-08-17T00:14:48;10.33;;;9.00;;
434;SDS011;204;48.942;9.256;2023-08-17T00:17:14;7.63;;;7.23;;
434;SDS011;204;48.942;9.256;2023-08-17T00:19:39;10.47;;;8.27;;
434;SDS011;204;48.942;9.256;2023-08-17T00:22:05;8.60;;;8.10;;
434;SDS011;204;48.942;9.256;2023-08-17T00:24:30;9.27;;;8.40;;
434;SDS011;204;48.942;9.256;2023-08-17T00:26:56;9.07;;;8.57;;
434;SDS011;204;48.942;9.256;2023-08-17T00:29:21;11.53;;;9.63;;
434;SDS011;204;48.942;9.256;2023-08-17T00:31:47;11.30;;;9.77;;
434;SDS011;204;48.942;9.256;2023-08-17T00:34:13;10.30;;;9.57;;
434;SDS011;204;48.942;9.256;2023-08-17T00:36:38;11.17;;;9.53;;
434;SDS011;204;48.942;9.256;2023-08-17T00:39:04;10.33;;;9.63;;
434;SDS011;204;48.942;9.256;2023-08-17T00:41:29;9.67;;;9.17;;
434;SDS011;204;48.942;9.256;2023-08-17T00:43:55;10.57;;;9.80;;
434;SDS011;204;48.942;9.256;2023-08-17T00:46:21;9.17;;;8.67;;
434;SDS011;204;48.942;9.256;2023-08-17T00:48:48;11.73;;;10.40;;
434;SDS011;204;48.942;9.256;2023-08-17T00:51:14;11.23;;;10.63;;
434;SDS011;204;48.942;9.256;2023-08-17T00:53:40;10.17;;;9.67;;
434;SDS011;204;48.942;9.256;2023-08-17T00:56:06;11.20;;;10.60;;
434;SDS011;204;48.942;9.256;2023-08-17T00:58:33;12.27;;;11.67;;
434;SDS011;204;48.942;9.256;2023-08-17T01:00:59;11.23;;;10.63;;
434;SDS011;204;48.942;9.256;2023-08-17T01:03:25;11.17;;;10.57;;
434;SDS011;204;48.942;9.256;2023-08-17T01:05:57;11.70;;;11.10;;
434;SDS011;204;48.942;9.256;2023-08-17T01:08:23;12.27;;;11.67;;
434;SDS011;204;48.942;9.256;2023-08-17T01:11:01;14.70;;;10.03;;
434;SDS011;204;48.942;9.256;2023-08-17T01:13:31;11.40;;;10.63;;
434;SDS011;204;48.942;9.256;2023-08-17T01:16:04;13.20;;;12.00;;
434;SDS011;204;48.942;9.256;2023-08-17T01:18:35;12.90;;;12.20;;
434;SDS011;204;48.942;9.256;2023-08-17T01:21:06;12.30;;;11.70;;
434;SDS011;204;48.942;9.256;2023-08-17T01:23:33;13.13;;;11.93;;
434;SDS011;204;48.942;9.256;2023-08-17T01:25:59;12.63;;;11.97;;
434;SDS011;204;48.942;9.256;2023-08-17T01:28:24;12.40;;;11.80;;
434;SDS011;204;48.942;9.256;2023-08-17T01:31:05;12.50;;;11.87;;
434;SDS011;204;48.942;9.256;2023-08-17T01:33:38;12.10;;;11.50;;
434;SDS011;204;48.942;9.256;2023-08-17T01:39:09;12.40;;;10.93;;
434;SDS011;204;48.942;9.256;2023-08-17T01:41:36;12.53;;;11.60;;
434;SDS011;204;48.942;9.256;2023-08-17T01:44:03;12.30;;;11.70;;
434;SDS011;204;48.942;9.256;2023-08-17T01:46:30;12.63;;;12.00;;
434;SDS011;204;48.942;9.256;2023-08-17T01:48:57;14.30;;;11.90;;
434;SDS011;204;48.942;9.256;2023-08-17T01:51:23;12.73;;;11.77;;
434;SDS011;204;48.942;9.256;2023-08-17T01:53:50;13.17;;;11.80;;
434;SDS011;204;48.942;9.256;2023-08-17T01:56:15;13.70;;;13.00;;
434;SDS011;204;48.942;9.256;2023-08-17T01:58:41;13.00;;;12.30;;
434;SDS011;204;48.942;9.256;2023-08-17T02:01:07;13.80;;;13.10;;
434;SDS011;204;48.942;9.256;2023-08-17T02:03:33;15.67;;;13.57;;
434;SDS011;204;48.942;9.256;2023-08-17T02:05:59;16.10;;;13.40;;
434;SDS011;204;48.942;9.256;2023-08-17T02:08:24;13.60;;;12.90;;
434;SDS011;204;48.942;9.256;2023-08-17T02:10:50;14.13;;;13.47;;
434;SDS011;204;48.942;9.256;2023-08-17T02:13:16;14.50;;;13.80;;
434;SDS011;204;48.942;9.256;2023-08-17T02:15:42;15.60;;;13.07;;
434;SDS011;204;48.942;9.256;2023-08-17T02:18:08;14.83;;;11.80;;
434;SDS011;204;48.942;9.256;2023-08-17T02:20:34;12.90;;;12.20;;
434;SDS011;204;48.942;9.256;2023-08-17T02:23:00;14.77;;;12.70;;
434;SDS011;204;48.942;9.256;2023-08-17T02:25:26;11.10;;;10.50;;
434;SDS011;204;48.942;9.256;2023-08-17T02:27:52;11.70;;;11.10;;
434;SDS011;204;48.942;9.256;2023-08-17T02:30:18;12.70;;;11.80;;
434;SDS011;204;48.942;9.256;2023-08-17T02:32:43;12.40;;;11.80;;
434;SDS011;204;48.942;9.256;2023-08-17T02:35:09;12.90;;;11.87;;
434;SDS011;204;48.942;9.256;2023-08-17T02:37:34;11.40;;;10.80;;
434;SDS011;204;48.942;9.256;2023-08-17T02:40:00;11.57;;;10.97;;
434;SDS011;204;48.942;9.256;2023-08-17T02:42:26;13.13;;;11.70;;
434;SDS011;204;48.942;9.256;2023-08-17T02:44:51;11.10;;;10.50;;
434;SDS011;204;48.942;9.256;2023-08-17T02:47:17;12.13;;;11.53;;
434;SDS011;204;48.942;9.256;2023-08-17T02:49:42;12.80;;;10.40;;
434;SDS011;204;48.942;9.256;2023-08-17T02:52:08;12.33;;;11.73;;
434;SDS011;204;48.942;9.256;2023-08-17T02:54:33;13.97;;;11.73;;
434;SDS011;204;48.942;9.256;2023-08-17T02:56:59;10.70;;;10.10;;
434;SDS011;204;48.942;9.256;2023-08-17T02:59:25;14.37;;;10.67;;
434;SDS011;204;48.942;9.256;2023-08-17T03:01:50;13.90;;;11.27;;
434;SDS011;204;48.942;9.256;2023-08-17T03:04:16;12.40;;;10.50;;
434;SDS011;204;48.942;9.256;2023-08-17T03:06:42;11.77;;;11.17;;
434;SDS011;204;48.942;9.256;2023-08-17T03:09:07;10.80;;;10.20;;
434;SDS011;204;48.942;9.256;2023-08-17T03:11:33;11.37;;;10.77;;
434;SDS011;204;48.942;9.256;2023-08-17T03:13:58;11.30;;;10.10;;
434;SDS011;204;48.942;9.256;2023-08-17T03:16:27;13.80;;;10.03;;
434;SDS011;204;48.942;9.256;2023-08-17T03:18:55;10.53;;;9.83;;
434;SDS011;204;48.942;9.256;2023-08-17T03:21:21;12.53;;;10.27;;
434;SDS011;204;48.942;9.256;2023-08-17T03:23:47;10.87;;;10.30;;
434;SDS011;204;48.942;9.256;2023-08-17T03:26:13;13.83;;;10.90;;
434;SDS011;204;48.942;9.256;2023-08-17T03:28:38;11.97;;;10.30;;
434;SDS011;204;48.942;9.256;2023-08-17T03:31:04;13.10;;;9.90;;
434;SDS011;204;48.942;9.256;2023-08-17T03:33:31;11.57;;;10.20;;
434;SDS011;204;48.942;9.256;2023-08-17T03:35:57;13.07;;;10.50;;
434;SDS011;204;48.942;9.256;2023-08-17T03:38:23;10.57;;;9.83;;
434;SDS011;204;48.942;9.256;2023-08-17T03:40:48;10.40;;;9.90;;
434;SDS011;204;48.942;9.256;2023-08-17T03:43:14;10.87;;;10.27;;
434;SDS011;204;48.942;9.256;2023-08-17T03:45:42;12.17;;;10.80;;
434;SDS011;204;48.942;9.256;2023-08-17T03:48:08;11.47;;;10.27;;
434;SDS011;204;48.942;9.256;2023-08-17T03:50:34;14.07;;;11.77;;
434;SDS011;204;48.942;9.256;2023-08-17T03:52:59;10.10;;;9.60;;
434;SDS011;204;48.942;9.256;2023-08-17T03:55:25;12.13;;;11.27;;
434;SDS011;204;48.942;9.256;2023-08-17T03:57:51;14.17;;;11.53;;
434;SDS011;204;48.942;9.256;2023-08-17T04:00:16;14.73;;;11.00;;
434;SDS011;204;48.942;9.256;2023-08-17T04:02:42;12.50;;;10.70;;
434;SDS011;204;48.942;9.256;2023-08-17T04:05:08;11.03;;;10.43;;
434;SDS011;204;48.942;9.256;2023-08-17T04:07:34;15.17;;;11.23;;
434;SDS011;204;48.942;9.256;2023-08-17T04:09:59;13.30;;;10.73;;
434;SDS011;204;48.942;9.256;2023-08-17T04:12:25;13.13;;;10.43;;
434;SDS011;204;48.942;9.256;2023-08-17T04:14:50;13.47;;;11.23;;
434;SDS011;204;48.942;9.256;2023-08-17T04:17:16;12.80;;;10.73;;
434;SDS011;204;48.942;9.256;2023-08-17T04:19:42;13.03;;;10.00;;
434;SDS011;204;48.942;9.256;2023-08-17T04:22:07;11.83;;;11.07;;
434;SDS011;204;48.942;9.256;2023-08-17T04:24:33;15.17;;;10.73;;
434;SDS011;204;48.942;9.256;2023-08-17T04:26:59;12.43;;;11.17;;
434;SDS011;204;48.942;9.256;2023-08-17T04:29:24;16.17;;;12.40;;
434;SDS011;204;48.942;9.256;2023-08-17T04:31:50;12.17;;;11.13;;
434;SDS011;204;48.942;9.256;2023-08-17T04:34:16;13.90;;;12.17;;
434;SDS011;204;48.942;9.256;2023-08-17T04:36:41;15.37;;;13.50;;
434;SDS011;204;48.942;9.256;2023-08-17T04:39:07;16.13;;;11.70;;
434;SDS011;204;48.942;9.256;2023-08-17T04:41:34;19.67;;;12.83;;
434;SDS011;204;48.942;9.256;2023-08-17T04:43:59;15.57;;;13.33;;
434;SDS011;204;48.942;9.256;2023-08-17T04:46:25;13.67;;;11.80;;
434;SDS011;204;48.942;9.256;2023-08-17T04:48:50;14.43;;;12.03;;
434;SDS011;204;48.942;9.256;2023-08-17T04:51:17;15.37;;;12.70;;
434;SDS011;204;48.942;9.256;2023-08-17T04:53:43;19.87;;;13.30;;
434;SDS011;204;48.942;9.256;2023-08-17T04:56:08;19.20;;;12.93;;
434;SDS011;204;48.942;9.256;2023-08-17T04:58:34;15.73;;;13.57;;
434;SDS011;204;48.942;9.256;2023-08-17T05:00:59;17.43;;;12.20;;
434;SDS011;204;48.942;9.256;2023-08-17T05:03:25;19.40;;;12.90;;
434;SDS011;204;48.942;9.256;2023-08-17T05:05:53;17.27;;;12.63;;
434;SDS011;204;48.942;9.256;2023-08-17T05:08:19;17.37;;;13.73;;
434;SDS011;204;48.942;9.256;2023-08-17T05:10:47;21.13;;;13.70;;
434;SDS011;204;48.942;9.256;2023-08-17T05:13:12;25.50;;;14.10;;
434;SDS011;204;48.942;9.256;2023-08-17T05:15:38;20.70;;;12.63;;
434;SDS011;204;48.942;9.256;2023-08-17T05:18:04;19.40;;;11.57;;
434;SDS011;204;48.942;9.256;2023-08-17T05:20:30;19.00;;;13.93;;
434;SDS011;204;48.942;9.256;2023-08-17T05:22:55;21.93;;;13.87;;
434;SDS011;204;48.942;9.256;2023-08-17T05:25:21;25.60;;;15.37;;
434;SDS011;204;48.942;9.256;2023-08-17T05:27:47;18.03;;;13.73;;
434;SDS011;204;48.942;9.256;2023-08-17T05:30:14;23.93;;;18.00;;
434;SDS011;204;48.942;9.256;2023-08-17T05:32:40;21.60;;;16.90;;
434;SDS011;204;48.942;9.256;2023-08-17T05:35:05;18.80;;;17.87;;
434;SDS011;204;48.942;9.256;2023-08-17T05:37:31;32.67;;;18.40;;
434;SDS011;204;48.942;9.256;2023-08-17T05:39:57;23.53;;;16.97;;
434;SDS011;204;48.942;9.256;2023-08-17T05:42:23;21.77;;;17.00;;
434;SDS011;204;48.942;9.256;2023-08-17T05:44:49;18.50;;;13.30;;
434;SDS011;204;48.942;9.256;2023-08-17T05:47:14;19.43;;;12.60;;
434;SDS011;204;48.942;9.256;2023-08-17T05:49:42;21.43;;;14.10;;
434;SDS011;204;48.942;9.256;2023-08-17T05:52:08;22.10;;;14.60;;
434;SDS011;204;48.942;9.256;2023-08-17T05:54:33;19.93;;;13.87;;
434;SDS011;204;48.942;9.256;2023-08-17T05:56:59;22.17;;;15.97;;
434;SDS011;204;48.942;9.256;2023-08-17T05:59:25;22.20;;;15.57;;
434;SDS011;204;48.942;9.256;2023-08-17T06:01:50;24.67;;;16.70;;
434;SDS011;204;48.942;9.256;2023-08-17T06:04:16;30.83;;;17.93;;
434;SDS011;204;48.942;9.256;2023-08-17T06:06:41;33.27;;;18.20;;
434;SDS011;204;48.942;9.256;2023-08-17T06:09:07;24.27;;;17.40;;
434;SDS011;204;48.942;9.256;2023-08-17T06:11:33;28.63;;;17.63;;
434;SDS011;204;48.942;9.256;2023-08-17T06:13:59;26.10;;;16.13;;
434;SDS011;204;48.942;9.256;2023-08-17T06:16:25;22.17;;;16.53;;
434;SDS011;204;48.942;9.256;2023-08-17T06:18:50;24.00;;;16.07;;
434;SDS011;204;48.942;9.256;2023-08-17T06:21:16;25.73;;;17.10;;
434;SDS011;204;48.942;9.256;2023-08-17T06:23:41;25.80;;;15.43;;
434;SDS011;204;48.942;9.256;2023-08-17T06:26:07;21.00;;;15.07;;
434;SDS011;204;48.942;9.256;2023-08-17T06:28:33;15.70;;;14.03;;
434;SDS011;204;48.942;9.256;2023-08-17T06:30:58;21.70;;;14.37;;
434;SDS011;204;48.942;9.256;2023-08-17T06:33:24;17.73;;;14.30;;
434;SDS011;204;48.942;9.256;2023-08-17T06:35:50;19.70;;;15.10;;
434;SDS011;204;48.942;9.256;2023-08-17T06:38:16;23.83;;;15.20;;
434;SDS011;204;48.942;9.256;2023-08-17T06:40:41;17.67;;;14.43;;
434;SDS011;204;48.942;9.256;2023-08-17T06:43:07;18.80;;;14.90;;
434;SDS011;204;48.942;9.256;2023-08-17T06:45:33;18.87;;;16.33;;
434;SDS011;204;48.942;9.256;2023-08-17T06:47:58;19.33;;;15.03;;
434;SDS011;204;48.942;9.256;2023-08-17T06:50:24;19.47;;;16.97;;
434;SDS011;204;48.942;9.256;2023-08-17T06:52:51;19.90;;;14.60;;
434;SDS011;204;48.942;9.256;2023-08-17T06:55:17;27.30;;;18.10;;
434;SDS011;204;48.942;9.256;2023-08-17T06:57:43;19.67;;;16.90;;
434;SDS011;204;48.942;9.256;2023-08-17T07:00:09;22.57;;;15.30;;
434;SDS011;204;48.942;9.256;2023-08-17T07:02:36;20.90;;;15.70;;
434;SDS011;204;48.942;9.256;2023-08-17T07:05:01;19.57;;;15.40;;
434;SDS011;204;48.942;9.256;2023-08-17T07:07:28;17.00;;;16.10;;
434;SDS011;204;48.942;9.256;2023-08-17T07:09:56;21.13;;;16.90;;
434;SDS011;204;48.942;9.256;2023-08-17T07:12:22;20.20;;;14.83;;
434;SDS011;204;48.942;9.256;2023-08-17T07:14:49;19.90;;;15.50;;
434;SDS011;204;48.942;9.256;2023-08-17T07:17:14;18.40;;;14.93;;
434;SDS011;204;48.942;9.256;2023-08-17T07:19:40;17.60;;;14.17;;
434;SDS011;204;48.942;9.256;2023-08-17T07:22:06;17.00;;;14.27;;
434;SDS011;204;48.942;9.256;2023-08-17T07:24:31;17.40;;;14.10;;
434;SDS011;204;48.942;9.256;2023-08-17T07:26:57;16.17;;;13.17;;
434;SDS011;204;48.942;9.256;2023-08-17T07:29:23;15.27;;;13.07;;
434;SDS011;204;48.942;9.256;2023-08-17T07:31:48;17.17;;;13.73;;
434;SDS011;204;48.942;9.256;2023-08-17T07:34:14;17.17;;;14.77;;
434;SDS011;204;48.942;9.256;2023-08-17T07:36:39;15.73;;;13.13;;
434;SDS011;204;48.942;9.256;2023-08-17T07:39:05;14.43;;;13.77;;
434;SDS011;204;48.942;9.256;2023-08-17T07:41:31;15.80;;;15.00;;
434;SDS011;204;48.942;9.256;2023-08-17T07:43:57;15.57;;;13.57;;
434;SDS011;204;48.942;9.256;2023-08-17T07:46:23;13.80;;;12.23;;
434;SDS011;204;48.942;9.256;2023-08-17T07:48:50;17.10;;;13.03;;
434;SDS011;204;48.942;9.256;2023-08-17T07:51:15;14.00;;;13.10;;
434;SDS011;204;48.942;9.256;2023-08-17T07:53:41;13.77;;;12.27;;
434;SDS011;204;48.942;9.256;2023-08-17T07:56:08;11.93;;;10.13;;
434;SDS011;204;48.942;9.256;2023-08-17T07:58:34;11.57;;;10.90;;
434;SDS011;204;48.942;9.256;2023-08-17T08:00:59;13.00;;;12.30;;
434;SDS011;204;48.942;9.256;2023-08-17T08:03:25;11.13;;;10.53;;
434;SDS011;204;48.942;9.256;2023-08-17T08:05:51;12.97;;;11.63;;
434;SDS011;204;48.942;9.256;2023-08-17T08:08:17;13.00;;;10.53;;
434;SDS011;204;48.942;9.256;2023-08-17T08:10:43;12.40;;;11.77;;
434;SDS011;204;48.942;9.256;2023-08-17T08:13:09;15.83;;;13.47;;
434;SDS011;204;48.942;9.256;2023-08-17T08:15:34;15.97;;;12.47;;
434;SDS011;204;48.942;9.256;2023-08-17T08:18:00;13.20;;;12.47;;
434;SDS011;204;48.942;9.256;2023-08-17T08:20:26;11.30;;;10.70;;
434;SDS011;204;48.942;9.256;2023-08-17T08:22:51;11.70;;;11.10;;
434;SDS011;204;48.942;9.256;2023-08-17T08:25:17;17.87;;;11.33;;
434;SDS011;204;48.942;9.256;2023-08-17T08:27:42;11.87;;;11.27;;
434;SDS011;204;48.942;9.256;2023-08-17T08:30:08;13.37;;;11.67;;
434;SDS011;204;48.942;9.256;2023-08-17T08:32:34;15.53;;;14.50;;
434;SDS011;204;48.942;9.256;2023-08-17T08:34:59;15.83;;;13.30;;
434;SDS011;204;48.942;9.256;2023-08-17T08:37:25;15.53;;;14.03;;
434;SDS011;204;48.942;9.256;2023-08-17T08:39:51;14.97;;;13.80;;
434;SDS011;204;48.942;9.256;2023-08-17T08:42:19;12.30;;;11.53;;
434;SDS011;204;48.942;9.256;2023-08-17T08:44:45;14.93;;;12.63;;
434;SDS011;204;48.942;9.256;2023-08-17T08:47:12;14.23;;;11.20;;
434;SDS011;204;48.942;9.256;2023-08-17T08:49:42;16.47;;;12.37;;
434;SDS011;204;48.942;9.256;2023-08-17T08:52:19;14.27;;;11.77;;
434;SDS011;204;48.942;9.256;2023-08-17T08:54:49;14.40;;;12.80;;
434;SDS011;204;48.942;9.256;2023-08-17T08:57:16;12.73;;;11.97;;
434;SDS011;204;48.942;9.256;2023-08-17T08:59:42;15.00;;;13.80;;
434;SDS011;204;48.942;9.256;2023-08-17T09:02:14;14.03;;;12.27;;
434;SDS011;204;48.942;9.256;2023-08-17T09:04:41;13.30;;;12.63;;
434;SDS011;204;48.942;9.256;2023-08-17T09:07:09;15.43;;;11.90;;
434;SDS011;204;48.942;9.256;2023-08-17T09:09:37;14.60;;;10.80;;
434;SDS011;204;48.942;9.256;2023-08-17T09:12:04;12.90;;;12.00;;
434;SDS011;204;48.942;9.256;2023-08-17T09:14:36;12.80;;;12.10;;
434;SDS011;204;48.942;9.256;2023-08-17T09:17:03;12.80;;;12.13;;
434;SDS011;204;48.942;9.256;2023-08-17T09:19:29;12.53;;;10.00;;
434;SDS011;204;48.942;9.256;2023-08-17T09:21:57;16.63;;;13.10;;
434;SDS011;204;48.942;9.256;2023-08-17T09:24:22;19.00;;;13.00;;
434;SDS011;204;48.942;9.256;2023-08-17T09:26:49;11.57;;;10.97;;
434;SDS011;204;48.942;9.256;2023-08-17T09:29:18;14.13;;;11.07;;
434;SDS011;204;48.942;9.256;2023-08-17T09:31:45;15.83;;;11.90;;
434;SDS011;204;48.942;9.256;2023-08-17T09:34:14;13.67;;;12.47;;
434;SDS011;204;48.942;9.256;2023-08-17T09:36:41;11.90;;;11.30;;
434;SDS011;204;48.942;9.256;2023-08-17T09:39:06;15.70;;;13.17;;
434;SDS011;204;48.942;9.256;2023-08-17T09:41:39;12.20;;;11.60;;
434;SDS011;204;48.942;9.256;2023-08-17T09:44:06;12.30;;;11.53;;
434;SDS011;204;48.942;9.256;2023-08-17T09:46:32;14.17;;;11.53;;
434;SDS011;204;48.942;9.256;2023-08-17T09:48:57;13.80;;;13.10;;
434;SDS011;204;48.942;9.256;2023-08-17T09:51:23;13.20;;;10.87;;
434;SDS011;204;48.942;9.256;2023-08-17T09:53:52;12.50;;;11.00;;
434;SDS011;204;48.942;9.256;2023-08-17T09:56:19;12.90;;;12.03;;
434;SDS011;204;48.942;9.256;2023-08-17T09:58:49;13.00;;;12.30;;
434;SDS011;204;48.942;9.256;2023-08-17T10:01:15;13.77;;;11.70;;
434;SDS011;204;48.942;9.256;2023-08-17T10:03:43;11.73;;;10.90;;
434;SDS011;204;48.942;9.256;2023-08-17T10:06:12;11.80;;;10.20;;
434;SDS011;204;48.942;9.256;2023-08-17T10:08:42;11.07;;;10.47;;
434;SDS011;204;48.942;9.256;2023-08-17T10:11:08;11.33;;;10.73;;
434;SDS011;204;48.942;9.256;2023-08-17T10:13:37;15.10;;;11.80;;
434;SDS011;204;48.942;9.256;2023-08-17T10:16:09;11.17;;;10.57;;
434;SDS011;204;48.942;9.256;2023-08-17T10:18:56;12.47;;;10.63;;
434;SDS011;204;48.942;9.256;2023-08-17T10:21:35;11.27;;;10.60;;
434;SDS011;204;48.942;9.256;2023-08-17T10:24:04;10.30;;;9.80;;
434;SDS011;204;48.942;9.256;2023-08-17T10:26:31;10.83;;;10.03;;
434;SDS011;204;48.942;9.256;2023-08-17T10:28:58;11.20;;;10.60;;
434;SDS011;204;48.942;9.256;2023-08-17T10:31:26;12.53;;;11.90;;
434;SDS011;204;48.942;9.256;2023-08-17T10:33:52;11.97;;;10.83;;
434;SDS011;204;48.942;9.256;2023-08-17T10:36:18;10.43;;;9.90;;
434;SDS011;204;48.942;9.256;2023-08-17T10:38:45;11.47;;;10.87;;
434;SDS011;204;48.942;9.256;2023-08-17T10:41:11;13.53;;;12.83;;
434;SDS011;204;48.942;9.256;2023-08-17T10:43:56;13.00;;;11.40;;
434;SDS011;204;48.942;9.256;2023-08-17T10:46:36;10.80;;;10.20;;
434;SDS011;204;48.942;9.256;2023-08-17T10:49:03;13.30;;;10.73;;
434;SDS011;204;48.942;9.256;2023-08-17T10:51:35;10.90;;;10.30;;
434;SDS011;204;48.942;9.256;2023-08-17T10:54:01;10.57;;;10.00;;
434;SDS011;204;48.942;9.256;2023-08-17T10:56:28;13.10;;;9.93;;
434;SDS011;204;48.942;9.256;2023-08-17T10:58:54;12.40;;;9.30;;
434;SDS011;204;48.942;9.256;2023-08-17T11:01:57;10.87;;;10.27;;
434;SDS011;204;48.942;9.256;2023-08-17T11:04:16;11.40;;;9.30;;
434;SDS011;204;48.942;9.256;2023-08-17T11:06:44;11.60;;;10.53;;
434;SDS011;204;48.942;9.256;2023-08-17T11:09:10;12.80;;;10.40;;
434;SDS011;204;48.942;9.256;2023-08-17T11:11:37;14.20;;;10.80;;
434;SDS011;204;48.942;9.256;2023-08-17T11:14:03;13.47;;;11.77;;
434;SDS011;204;48.942;9.256;2023-08-17T11:16:29;11.63;;;10.33;;
434;SDS011;204;48.942;9.256;2023-08-17T11:18:55;10.83;;;10.30;;
434;SDS011;204;48.942;9.256;2023-08-17T11:21:23;9.23;;;8.73;;
434;SDS011;204;48.942;9.256;2023-08-17T11:23:49;13.73;;;9.10;;
434;SDS011;204;48.942;9.256;2023-08-17T11:26:18;8.77;;;8.20;;
434;SDS011;204;48.942;9.256;2023-08-17T11:28:44;9.77;;;9.27;;
434;SDS011;204;48.942;9.256;2023-08-17T11:31:10;9.53;;;9.07;;
434;SDS011;204;48.942;9.256;2023-08-17T11:33:37;11.10;;;9.50;;
434;SDS011;204;48.942;9.256;2023-08-17T11:36:04;12.23;;;10.53;;
434;SDS011;204;48.942;9.256;2023-08-17T11:38:35;12.63;;;9.30;;
434;SDS011;204;48.942;9.256;2023-08-17T11:41:02;10.40;;;9.40;;
434;SDS011;204;48.942;9.256;2023-08-17T11:43:28;11.97;;;11.37;;
434;SDS011;204;48.942;9.256;2023-08-17T11:45:55;11.97;;;11.37;;
434;SDS011;204;48.942;9.256;2023-08-17T11:48:21;11.27;;;10.13;;
434;SDS011;204;48.942;9.256;2023-08-17T11:50:48;11.03;;;9.10;;
434;SDS011;204;48.942;9.256;2023-08-17T11:53:14;12.33;;;9.93;;
434;SDS011;204;48.942;9.256;2023-08-17T11:55:40;9.83;;;9.33;;
434;SDS011;204;48.942;9.256;2023-08-17T11:58:06;9.80;;;9.30;;
434;SDS011;204;48.942;9.256;2023-08-17T12:00:36;12.50;;;9.93;;
434;SDS011;204;48.942;9.256;2023-08-17T12:03:06;10.83;;;9.07;;
434;SDS011;204;48.942;9.256;2023-08-17T12:05:32;13.63;;;12.33;;
434;SDS011;204;48.942;9.256;2023-08-17T12:08:00;12.07;;;9.77;;
434;SDS011;204;48.942;9.256;2023-08-17T12:10:33;13.23;;;9.43;;
434;SDS011;204;48.942;9.256;2023-08-17T12:13:00;9.10;;;8.60;;
434;SDS011;204;48.942;9.256;2023-08-17T12:15:33;9.60;;;9.10;;
434;SDS011;204;48.942;9.256;2023-08-17T12:18:00;16.33;;;9.17;;
434;SDS011;204;48.942;9.256;2023-08-17T12:20:28;9.50;;;9.00;;
434;SDS011;204;48.942;9.256;2023-08-17T12:22:56;10.33;;;7.93;;
434;SDS011;204;48.942;9.256;2023-08-17T12:25:23;8.60;;;7.90;;
434;SDS011;204;48.942;9.256;2023-08-17T12:27:50;8.83;;;8.30;;
434;SDS011;204;48.942;9.256;2023-08-17T12:32:54;7.80;;;7.40;;
434;SDS011;204;48.942;9.256;2023-08-17T12:35:20;7.93;;;7.53;;
434;SDS011;204;48.942;9.256;2023-08-17T12:37:48;8.60;;;8.10;;
434;SDS011;204;48.942;9.256;2023-08-17T12:40:13;9.83;;;7.40;;
434;SDS011;204;48.942;9.256;2023-08-17T12:42:39;7.70;;;7.30;;
434;SDS011;204;48.942;9.256;2023-08-17T12:45:04;7.80;;;7.40;;
434;SDS011;204;48.942;9.256;2023-08-17T12:47:30;6.90;;;6.50;;
434;SDS011;204;48.942;9.256;2023-08-17T12:49:56;7.13;;;6.73;;
434;SDS011;204;48.942;9.256;2023-08-17T12:52:21;8.10;;;7.70;;
434;SDS011;204;48.942;9.256;2023-08-17T12:54:47;8.20;;;7.80;;
434;SDS011;204;48.942;9.256;2023-08-17T12:57:12;7.40;;;7.00;;
434;SDS011;204;48.942;9.256;2023-08-17T12:59:38;8.57;;;7.90;;
434;SDS011;204;48.942;9.256;2023-08-17T13:02:04;6.63;;;6.23;;
434;SDS011;204;48.942;9.256;2023-08-17T13:04:29;8.20;;;7.80;;
434;SDS011;204;48.942;9.256;2023-08-17T13:06:55;8.57;;;6.97;;
434;SDS011;204;48.942;9.256;2023-08-17T13:09:20;7.70;;;6.50;;
434;SDS011;204;48.942;9.256;2023-08-17T13:11:46;6.57;;;6.17;;
434;SDS011;204;48.942;9.256;2023-08-17T13:14:12;8.13;;;7.73;;
434;SDS011;204;48.942;9.256;2023-08-17T13:16:39;7.63;;;6.63;;
434;SDS011;204;48.942;9.256;2023-08-17T13:19:04;8.27;;;7.87;;
434;SDS011;204;48.942;9.256;2023-08-17T13:21:30;9.73;;;7.23;;
434;SDS011;204;48.942;9.256;2023-08-17T13:23:55;9.20;;;8.53;;
434;SDS011;204;48.942;9.256;2023-08-17T13:26:24;7.60;;;7.20;;
434;SDS011;204;48.942;9.256;2023-08-17T13:28:50;6.47;;;6.10;;
434;SDS011;204;48.942;9.256;2023-08-17T13:31:16;7.60;;;7.20;;
434;SDS011;204;48.942;9.256;2023-08-17T13:33:42;8.53;;;7.70;;
434;SDS011;204;48.942;9.256;2023-08-17T13:36:08;7.83;;;7.43;;
434;SDS011;204;48.942;9.256;2023-08-17T13:38:33;8.60;;;7.50;;
434;SDS011;204;48.942;9.256;2023-08-17T13:40:59;9.70;;;7.97;;
434;SDS011;204;48.942;9.256;2023-08-17T13:43:25;9.00;;;7.87;;
434;SDS011;204;48.942;9.256;2023-08-17T13:45:50;8.90;;;8.40;;
434;SDS011;204;48.942;9.256;2023-08-17T13:48:16;7.77;;;7.37;;
434;SDS011;204;48.942;9.256;2023-08-17T13:50:41;8.27;;;7.80;;
434;SDS011;204;48.942;9.256;2023-08-17T13:53:07;9.23;;;8.73;;
434;SDS011;204;48.942;9.256;2023-08-17T13:55:32;9.23;;;8.70;;
434;SDS011;204;48.942;9.256;2023-08-17T13:57:58;10.47;;;9.93;;
434;SDS011;204;48.942;9.256;2023-08-17T14:00:24;9.30;;;8.80;;
434;SDS011;204;48.942;9.256;2023-08-17T14:02:51;9.50;;;9.00;;
434;SDS011;204;48.942;9.256;2023-08-17T14:05:17;10.93;;;9.37;;
434;SDS011;204;48.942;9.256;2023-08-17T14:07:43;10.00;;;9.50;;
434;SDS011;204;48.942;9.256;2023-08-17T14:10:08;11.17;;;10.20;;
434;SDS011;204;48.942;9.256;2023-08-17T14:12:34;9.73;;;9.23;;
434;SDS011;204;48.942;9.256;2023-08-17T14:15:00;10.43;;;9.83;;
434;SDS011;204;48.942;9.256;2023-08-17T14:17:26;9.97;;;9.43;;
434;SDS011;204;48.942;9.256;2023-08-17T14:19:51;10.03;;;8.90;;
434;SDS011;204;48.942;9.256;2023-08-17T14:22:17;9.57;;;8.23;;
434;SDS011;204;48.942;9.256;2023-08-17T14:24:42;9.10;;;8.60;;
434;SDS011;204;48.942;9.256;2023-08-17T14:27:08;8.73;;;8.23;;
434;SDS011;204;48.942;9.256;2023-08-17T14:29:34;9.20;;;8.13;;
434;SDS011;204;48.942;9.256;2023-08-17T14:31:59;9.43;;;8.93;;
434;SDS011;204;48.942;9.256;2023-08-17T14:34:25;9.70;;;9.10;;
434;SDS011;204;48.942;9.256;2023-08-17T14:36:51;8.60;;;8.10;;
434;SDS011;204;48.942;9.256;2023-08-17T14:39:16;8.63;;;8.13;;
434;SDS011;204;48.942;9.256;2023-08-17T14:41:42;9.77;;;9.27;;
434;SDS011;204;48.942;9.256;2023-08-17T14:44:07;9.07;;;8.57;;
434;SDS011;204;48.942;9.256;2023-08-17T14:46:33;9.23;;;8.67;;
434;SDS011;204;48.942;9.256;2023-08-17T14:48:59;9.10;;;8.30;;
434;SDS011;204;48.942;9.256;2023-08-17T14:51:25;8.07;;;7.67;;
434;SDS011;204;48.942;9.256;2023-08-17T14:53:53;9.23;;;8.73;;
434;SDS011;204;48.942;9.256;2023-08-17T14:56:19;8.37;;;7.93;;
434;SDS011;204;48.942;9.256;2023-08-17T14:58:44;9.20;;;8.60;;
434;SDS011;204;48.942;9.256;2023-08-17T15:01:10;7.90;;;7.50;;
434;SDS011;204;48.942;9.256;2023-08-17T15:03:35;7.90;;;7.50;;
434;SDS011;204;48.942;9.256;2023-08-17T15:06:02;9.90;;;8.13;;
434;SDS011;204;48.942;9.256;2023-08-17T15:08:28;9.00;;;8.50;;
434;SDS011;204;48.942;9.256;2023-08-17T15:10:53;8.87;;;8.37;;
434;SDS011;204;48.942;9.256;2023-08-17T15:13:19;8.87;;;8.37;;
434;SDS011;204;48.942;9.256;2023-08-17T15:15:47;11.00;;;9.90;;
434;SDS011;204;48.942;9.256;2023-08-17T15:18:13;9.60;;;9.10;;
434;SDS011;204;48.942;9.256;2023-08-17T15:20:38;8.77;;;8.23;;
434;SDS011;204;48.942;9.256;2023-08-17T15:23:04;8.77;;;8.27;;
434;SDS011;204;48.942;9.256;2023-08-17T15:25:29;7.63;;;7.23;;